createdAt,value
2022-10-09T00:00:22.437Z,6.84
2022-10-09T00:01:22.453Z,6.89
2022-10-09T00:02:22.450Z,6.87
2022-10-09T00:03:22.425Z,6.89
2022-10-09T00:04:22.420Z,6.84
2022-10-09T00:05:22.465Z,6.89
2022-10-09T00:06:22.375Z,6.89
2022-10-09T00:07:22.383Z,6.89
2022-10-09T00:08:22.359Z,6.92
2022-10-09T00:09:22.353Z,6.94
2022-10-09T00:10:22.362Z,6.91
2022-10-09T00:11:22.366Z,6.91
2022-10-09T00:12:22.312Z,6.87
2022-10-09T00:13:22.302Z,6.79
2022-10-09T00:14:22.298Z,6.77
2022-10-09T00:15:22.367Z,6.76
2022-10-09T00:16:22.302Z,6.79
2022-10-09T00:17:22.285Z,6.77
2022-10-09T00:18:22.276Z,6.71
2022-10-09T00:19:22.275Z,6.55
2022-10-09T00:20:22.255Z,6.62
2022-10-09T00:21:22.247Z,6.44
2022-10-09T00:22:22.221Z,6.46
2022-10-09T00:23:22.212Z,6.55
2022-10-09T00:24:22.231Z,6.49
2022-10-09T00:25:22.185Z,6.40
2022-10-09T00:26:22.189Z,6.38
2022-10-09T00:27:22.176Z,6.34
2022-10-09T00:28:22.231Z,6.40
2022-10-09T00:29:22.173Z,6.37
2022-10-09T00:30:22.152Z,6.38
2022-10-09T00:31:22.274Z,6.51
2022-10-09T00:32:22.160Z,6.54
2022-10-09T00:33:22.115Z,6.55
2022-10-09T00:34:22.120Z,6.62
2022-10-09T00:35:22.092Z,6.67
2022-10-09T00:36:22.082Z,6.61
2022-10-09T00:37:22.075Z,6.58
2022-10-09T00:38:22.059Z,6.62
2022-10-09T00:39:22.064Z,6.69
2022-10-09T00:40:22.066Z,6.71
2022-10-09T00:41:22.034Z,6.71
2022-10-09T00:42:22.017Z,6.74
2022-10-09T00:43:22.011Z,6.71
2022-10-09T00:44:22.025Z,6.77
2022-10-09T00:45:21.987Z,6.87
2022-10-09T00:46:22.011Z,6.81
2022-10-09T00:47:21.970Z,6.91
2022-10-09T00:48:21.966Z,6.85
2022-10-09T00:49:21.967Z,6.76
2022-10-09T00:50:21.973Z,6.76
2022-10-09T00:51:21.934Z,6.73
2022-10-09T00:52:21.935Z,6.71
2022-10-09T00:53:21.922Z,6.69
2022-10-09T00:54:21.930Z,6.69
2022-10-09T00:55:21.917Z,6.74
2022-10-09T00:56:21.893Z,6.70
2022-10-09T00:57:21.873Z,6.84
2022-10-09T00:58:21.864Z,6.67
2022-10-09T00:59:21.850Z,6.62
2022-10-09T01:00:21.859Z,6.70
2022-10-09T01:01:21.900Z,6.70
2022-10-09T01:02:21.905Z,6.66
2022-10-09T01:03:21.822Z,6.62
2022-10-09T01:04:21.812Z,6.64
2022-10-09T01:05:21.812Z,6.61
2022-10-09T01:06:21.786Z,6.73
2022-10-09T01:07:21.794Z,6.64
2022-10-09T01:08:21.762Z,6.76
2022-10-09T01:09:21.760Z,6.74
2022-10-09T01:10:21.743Z,6.84
2022-10-09T01:11:21.738Z,6.74
2022-10-09T01:12:21.740Z,6.71
2022-10-09T01:13:21.715Z,6.81
2022-10-09T01:14:21.724Z,6.73
2022-10-09T01:15:21.703Z,6.74
2022-10-09T01:16:24.062Z,6.69
2022-10-09T01:17:22.702Z,6.84
2022-10-09T01:18:21.665Z,6.79
2022-10-09T01:19:21.648Z,6.79
2022-10-09T01:20:21.635Z,6.76
2022-10-09T01:21:21.626Z,6.92
2022-10-09T01:22:21.646Z,6.91
2022-10-09T01:23:21.736Z,6.88
2022-10-09T01:24:21.611Z,6.84
2022-10-09T01:25:21.588Z,6.80
2022-10-09T01:26:21.596Z,6.80
2022-10-09T01:27:21.574Z,6.80
2022-10-09T01:28:21.600Z,6.73
2022-10-09T01:29:21.553Z,6.67
2022-10-09T01:30:21.556Z,6.84
2022-10-09T01:31:21.589Z,6.76
2022-10-09T01:32:21.521Z,6.84
2022-10-09T01:33:21.512Z,6.71
2022-10-09T01:34:21.505Z,6.70
2022-10-09T01:35:21.489Z,6.77
2022-10-09T01:36:22.502Z,6.79
2022-10-09T01:37:21.479Z,6.70
2022-10-09T01:38:21.476Z,6.71
2022-10-09T01:39:21.477Z,6.71
2022-10-09T01:40:21.470Z,6.70
2022-10-09T01:41:21.434Z,6.70
2022-10-09T01:42:21.429Z,6.79
2022-10-09T01:43:21.419Z,6.71
2022-10-09T01:44:21.412Z,6.80
2022-10-09T01:45:21.443Z,6.62
2022-10-09T01:46:21.454Z,6.67
2022-10-09T01:47:21.376Z,6.64
2022-10-09T01:48:21.364Z,6.67
2022-10-09T01:49:21.394Z,6.71
2022-10-09T01:50:21.350Z,6.66
2022-10-09T01:51:21.352Z,6.76
2022-10-09T01:52:21.323Z,6.70
2022-10-09T01:53:21.324Z,6.71
2022-10-09T01:54:21.307Z,6.77
2022-10-09T01:55:21.308Z,6.84
2022-10-09T01:56:21.291Z,6.76
2022-10-09T01:57:21.285Z,6.70
2022-10-09T01:58:21.269Z,6.79
2022-10-09T01:59:21.275Z,6.80
2022-10-09T02:00:21.264Z,6.74
2022-10-09T02:01:21.279Z,6.84
2022-10-09T02:02:21.397Z,6.76
2022-10-09T02:03:21.233Z,6.79
2022-10-09T02:04:21.229Z,6.80
2022-10-09T02:05:21.219Z,6.76
2022-10-09T02:06:21.209Z,6.71
2022-10-09T02:07:21.180Z,6.88
2022-10-09T02:08:21.175Z,6.80
2022-10-09T02:09:21.197Z,6.76
2022-10-09T02:10:21.211Z,6.64
2022-10-09T02:11:21.141Z,6.55
2022-10-09T02:12:21.142Z,6.44
2022-10-09T02:13:21.138Z,6.44
2022-10-09T02:14:21.129Z,6.49
2022-10-09T02:15:21.160Z,6.64
2022-10-09T02:16:21.137Z,6.58
2022-10-09T02:17:21.095Z,6.58
2022-10-09T02:18:21.073Z,6.52
2022-10-09T02:19:21.077Z,6.44
2022-10-09T02:20:21.102Z,6.54
2022-10-09T02:21:21.068Z,6.43
2022-10-09T02:22:21.035Z,6.46
2022-10-09T02:23:21.023Z,6.49
2022-10-09T02:24:21.021Z,6.48
2022-10-09T02:25:21.002Z,6.43
2022-10-09T02:26:21.020Z,6.31
2022-10-09T02:27:20.984Z,6.31
2022-10-09T02:28:21.006Z,6.17
2022-10-09T02:29:20.963Z,6.15
2022-10-09T02:30:52.913Z,6.28
2022-10-09T02:31:21.023Z,6.11
2022-10-09T02:32:20.971Z,6.12
2022-10-09T02:33:20.934Z,6.17
2022-10-09T02:34:20.916Z,6.15
2022-10-09T02:35:20.916Z,6.19
2022-10-09T02:36:20.891Z,6.33
2022-10-09T02:37:21.915Z,6.28
2022-10-09T02:38:20.870Z,6.30
2022-10-09T02:39:20.871Z,6.09
2022-10-09T02:40:20.888Z,6.18
2022-10-09T02:41:20.846Z,6.19
2022-10-09T02:42:20.857Z,6.03
2022-10-09T02:43:20.828Z,6.01
2022-10-09T02:44:20.880Z,5.99
2022-10-09T02:45:20.817Z,6.08
2022-10-09T02:46:20.873Z,5.97
2022-10-09T02:47:20.787Z,6.04
2022-10-09T02:48:20.782Z,6.06
2022-10-09T02:49:20.782Z,6.00
2022-10-09T02:50:20.778Z,5.96
2022-10-09T02:51:20.780Z,6.08
2022-10-09T02:52:20.744Z,5.96
2022-10-09T02:53:20.727Z,5.97
2022-10-09T02:54:20.726Z,5.91
2022-10-09T02:55:20.726Z,5.97
2022-10-09T02:56:20.755Z,5.96
2022-10-09T02:57:20.692Z,6.00
2022-10-09T02:58:20.693Z,6.14
2022-10-09T02:59:20.676Z,6.14
2022-10-09T03:00:20.680Z,6.08
2022-10-09T03:01:20.720Z,6.17
2022-10-09T03:02:20.773Z,6.21
2022-10-09T03:03:20.656Z,6.25
2022-10-09T03:04:20.623Z,6.15
2022-10-09T03:05:20.611Z,6.17
2022-10-09T03:06:20.617Z,6.27
2022-10-09T03:07:20.606Z,6.27
2022-10-09T03:08:20.585Z,6.17
2022-10-09T03:09:20.577Z,6.17
2022-10-09T03:10:20.565Z,6.36
2022-10-09T03:11:20.550Z,6.17
2022-10-09T03:12:20.561Z,6.21
2022-10-09T03:13:20.536Z,6.27
2022-10-09T03:14:20.528Z,6.27
2022-10-09T03:15:20.518Z,6.18
2022-10-09T03:16:20.610Z,6.17
2022-10-09T03:17:20.514Z,6.19
2022-10-09T03:18:20.502Z,6.21
2022-10-09T03:19:20.481Z,6.17
2022-10-09T03:20:20.465Z,6.27
2022-10-09T03:21:20.463Z,6.21
2022-10-09T03:22:20.455Z,6.18
2022-10-09T03:23:20.454Z,6.19
2022-10-09T03:24:20.429Z,6.11
2022-10-09T03:25:20.418Z,6.09
2022-10-09T03:26:20.419Z,6.22
2022-10-09T03:27:20.428Z,6.08
2022-10-09T03:28:20.423Z,6.12
2022-10-09T03:29:21.396Z,5.96
2022-10-09T03:30:20.394Z,5.90
2022-10-09T03:31:39.763Z,5.97
2022-10-09T03:32:22.403Z,5.86
2022-10-09T03:33:20.339Z,5.91
2022-10-09T03:34:20.329Z,5.91
2022-10-09T03:35:20.361Z,5.90
2022-10-09T03:36:20.303Z,5.97
2022-10-09T03:37:20.315Z,5.89
2022-10-09T03:38:20.294Z,5.83
2022-10-09T03:39:20.291Z,5.85
2022-10-09T03:40:20.284Z,5.93
2022-10-09T03:41:20.263Z,5.85
2022-10-09T03:42:20.257Z,5.83
2022-10-09T03:43:20.237Z,5.68
2022-10-09T03:44:20.231Z,5.74
2022-10-09T03:45:20.243Z,5.57
2022-10-09T03:46:20.236Z,5.71
2022-10-09T03:47:20.239Z,5.68
2022-10-09T03:48:20.187Z,5.67
2022-10-09T03:49:20.183Z,5.46
2022-10-09T03:50:20.173Z,5.48
2022-10-09T03:51:20.185Z,5.45
2022-10-09T03:52:20.161Z,5.48
2022-10-09T03:53:20.174Z,5.46
2022-10-09T03:54:20.133Z,5.65
2022-10-09T03:55:20.137Z,5.61
2022-10-09T03:56:20.117Z,5.74
2022-10-09T03:57:20.112Z,5.75
2022-10-09T03:58:20.110Z,5.86
2022-10-09T03:59:20.084Z,5.86
2022-10-09T04:00:20.098Z,5.97
2022-10-09T04:01:20.164Z,5.93
2022-10-09T04:02:20.150Z,5.93
2022-10-09T04:03:20.049Z,5.97
2022-10-09T04:04:20.048Z,6.01
2022-10-09T04:05:20.026Z,5.93
2022-10-09T04:06:20.020Z,5.94
2022-10-09T04:07:20.019Z,5.81
2022-10-09T04:08:19.992Z,5.68
2022-10-09T04:09:19.977Z,5.78
2022-10-09T04:10:19.980Z,5.79
2022-10-09T04:11:19.967Z,5.76
2022-10-09T04:12:19.979Z,5.74
2022-10-09T04:13:19.945Z,5.74
2022-10-09T04:14:19.934Z,5.74
2022-10-09T04:15:19.923Z,5.67
2022-10-09T04:16:20.025Z,5.78
2022-10-09T04:17:19.925Z,5.86
2022-10-09T04:18:19.909Z,5.82
2022-10-09T04:19:19.893Z,5.76
2022-10-09T04:20:19.865Z,5.79
2022-10-09T04:21:19.861Z,6.00
2022-10-09T04:22:19.852Z,5.96
2022-10-09T04:23:19.861Z,5.93
2022-10-09T04:24:19.852Z,5.97
2022-10-09T04:25:19.814Z,5.90
2022-10-09T04:26:20.812Z,6.00
2022-10-09T04:27:19.811Z,5.97
2022-10-09T04:28:19.826Z,5.90
2022-10-09T04:29:19.811Z,5.81
2022-10-09T04:30:19.785Z,5.79
2022-10-09T04:31:19.805Z,5.79
2022-10-09T04:32:20.760Z,5.61
2022-10-09T04:33:19.759Z,5.65
2022-10-09T04:34:19.750Z,5.76
2022-10-09T04:35:19.730Z,5.79
2022-10-09T04:36:19.719Z,5.81
2022-10-09T04:37:19.725Z,5.65
2022-10-09T04:38:19.697Z,5.60
2022-10-09T04:39:19.684Z,5.64
2022-10-09T04:40:19.681Z,5.63
2022-10-09T04:41:19.662Z,5.60
2022-10-09T04:42:19.679Z,5.75
2022-10-09T04:43:19.640Z,5.78
2022-10-09T04:44:19.633Z,5.82
2022-10-09T04:45:19.619Z,5.86
2022-10-09T04:46:19.603Z,5.79
2022-10-09T04:47:19.611Z,5.67
2022-10-09T04:48:19.601Z,5.56
2022-10-09T04:49:19.581Z,5.57
2022-10-09T04:50:19.571Z,5.56
2022-10-09T04:51:19.564Z,5.51
2022-10-09T04:52:19.566Z,5.31
2022-10-09T04:53:19.550Z,5.28
2022-10-09T04:54:19.532Z,5.21
2022-10-09T04:55:19.524Z,5.03
2022-10-09T04:56:19.533Z,5.12
2022-10-09T04:57:19.537Z,5.17
2022-10-09T04:58:19.493Z,5.21
2022-10-09T04:59:19.482Z,5.13
2022-10-09T05:00:19.474Z,5.27
2022-10-09T05:01:19.481Z,5.38
2022-10-09T05:02:19.508Z,5.21
2022-10-09T05:03:19.466Z,5.21
2022-10-09T05:04:19.434Z,5.17
2022-10-09T05:05:19.439Z,5.09
2022-10-09T05:06:19.406Z,4.97
2022-10-09T05:07:19.406Z,4.85
2022-10-09T05:08:19.425Z,4.94
2022-10-09T05:09:19.397Z,4.91
2022-10-09T05:10:20.379Z,5.10
2022-10-09T05:11:19.369Z,5.10
2022-10-09T05:12:19.380Z,5.20
2022-10-09T05:13:19.358Z,5.22
2022-10-09T05:14:19.338Z,5.24
2022-10-09T05:15:19.324Z,5.15
2022-10-09T05:16:19.366Z,5.21
2022-10-09T05:17:22.939Z,5.18
2022-10-09T05:18:20.302Z,5.24
2022-10-09T05:19:19.289Z,5.22
2022-10-09T05:20:19.280Z,5.18
2022-10-09T05:21:19.290Z,5.10
2022-10-09T05:22:19.261Z,5.06
2022-10-09T05:23:19.267Z,5.22
2022-10-09T05:24:19.229Z,5.18
2022-10-09T05:25:19.221Z,5.21
2022-10-09T05:26:19.220Z,5.21
2022-10-09T05:27:19.199Z,5.28
2022-10-09T05:28:19.248Z,5.42
2022-10-09T05:29:19.202Z,5.40
2022-10-09T05:30:19.170Z,5.33
2022-10-09T05:31:19.220Z,5.42
2022-10-09T05:32:19.155Z,5.38
2022-10-09T05:33:19.147Z,5.31
2022-10-09T05:34:19.153Z,5.33
2022-10-09T05:35:19.127Z,5.35
2022-10-09T05:36:19.122Z,5.21
2022-10-09T05:37:19.104Z,5.25
2022-10-09T05:38:19.091Z,5.25
2022-10-09T05:39:19.104Z,5.31
2022-10-09T05:40:19.084Z,5.28
2022-10-09T05:41:19.069Z,5.17
2022-10-09T05:42:19.055Z,5.21
2022-10-09T05:43:19.054Z,5.20
2022-10-09T05:44:19.044Z,5.18
2022-10-09T05:45:19.048Z,5.13
2022-10-09T05:46:19.073Z,5.07
2022-10-09T05:47:19.007Z,5.15
2022-10-09T05:48:18.994Z,5.02
2022-10-09T05:49:18.989Z,4.96
2022-10-09T05:50:19.009Z,5.02
2022-10-09T05:51:18.962Z,5.09
2022-10-09T05:52:18.964Z,5.06
2022-10-09T05:53:18.951Z,5.00
2022-10-09T05:54:18.943Z,5.03
2022-10-09T05:55:18.948Z,4.94
2022-10-09T05:56:19.921Z,4.99
2022-10-09T05:57:18.914Z,4.92
2022-10-09T05:58:18.911Z,4.94
2022-10-09T05:59:18.894Z,4.88
2022-10-09T06:00:18.883Z,4.84
2022-10-09T06:01:18.917Z,4.84
2022-10-09T06:02:18.944Z,4.78
2022-10-09T06:03:18.855Z,4.78
2022-10-09T06:04:18.840Z,4.88
2022-10-09T06:05:18.851Z,4.86
2022-10-09T06:06:18.827Z,4.94
2022-10-09T06:07:18.844Z,5.03
2022-10-09T06:08:18.835Z,5.09
2022-10-09T06:09:18.831Z,5.12
2022-10-09T06:10:18.786Z,5.07
2022-10-09T06:11:18.763Z,5.17
2022-10-09T06:12:18.769Z,5.15
2022-10-09T06:13:18.765Z,5.20
2022-10-09T06:14:18.770Z,5.24
2022-10-09T06:15:18.732Z,5.30
2022-10-09T06:16:18.757Z,5.21
2022-10-09T06:17:18.712Z,5.35
2022-10-09T06:18:18.703Z,5.45
2022-10-09T06:19:18.694Z,5.31
2022-10-09T06:20:18.722Z,5.39
2022-10-09T06:21:18.674Z,5.57
2022-10-09T06:22:18.670Z,5.53
2022-10-09T06:23:18.659Z,5.56
2022-10-09T06:24:18.668Z,5.64
2022-10-09T06:25:18.668Z,5.63
2022-10-09T06:26:18.625Z,5.65
2022-10-09T06:27:18.623Z,5.61
2022-10-09T06:28:18.656Z,5.57
2022-10-09T06:29:18.601Z,5.53
2022-10-09T06:30:18.591Z,5.53
2022-10-09T06:31:18.650Z,5.51
2022-10-09T06:32:18.559Z,5.46
2022-10-09T06:33:18.566Z,5.49
2022-10-09T06:34:18.569Z,5.40
2022-10-09T06:35:18.544Z,5.27
2022-10-09T06:36:18.540Z,5.30
2022-10-09T06:37:18.531Z,5.35
2022-10-09T06:38:18.516Z,5.17
2022-10-09T06:39:18.496Z,5.13
2022-10-09T06:40:18.498Z,5.04
2022-10-09T06:41:18.488Z,5.10
2022-10-09T06:42:18.497Z,5.17
2022-10-09T06:43:18.460Z,5.13
2022-10-09T06:44:18.438Z,5.18
2022-10-09T06:45:19.439Z,5.07
2022-10-09T06:46:18.492Z,5.12
2022-10-09T06:47:18.460Z,5.04
2022-10-09T06:48:18.412Z,5.17
2022-10-09T06:49:18.403Z,5.27
2022-10-09T06:50:18.400Z,5.48
2022-10-09T06:51:18.385Z,5.42
2022-10-09T06:52:18.397Z,5.51
2022-10-09T06:53:18.365Z,5.61
2022-10-09T06:54:18.345Z,5.60
2022-10-09T06:55:18.338Z,5.72
2022-10-09T06:56:18.328Z,5.71
2022-10-09T06:57:19.352Z,5.72
2022-10-09T06:58:18.318Z,5.83
2022-10-09T06:59:18.311Z,5.78
2022-10-09T07:00:18.304Z,5.75
2022-10-09T07:01:18.336Z,5.65
2022-10-09T07:02:18.333Z,5.75
2022-10-09T07:03:18.289Z,5.79
2022-10-09T07:04:18.260Z,5.75
2022-10-09T07:05:18.245Z,5.61
2022-10-09T07:06:18.237Z,5.61
2022-10-09T07:07:18.227Z,5.74
2022-10-09T07:08:18.223Z,5.78
2022-10-09T07:09:18.202Z,5.78
2022-10-09T07:10:22.833Z,5.78
2022-10-09T07:11:19.187Z,5.74
2022-10-09T07:12:18.177Z,5.67
2022-10-09T07:13:18.166Z,5.72
2022-10-09T07:14:18.199Z,5.72
2022-10-09T07:15:18.159Z,5.79
2022-10-09T07:16:18.162Z,5.91
2022-10-09T07:17:18.121Z,5.82
2022-10-09T07:18:18.134Z,5.72
2022-10-09T07:19:18.126Z,5.82
2022-10-09T07:20:18.096Z,5.89
2022-10-09T07:21:18.089Z,6.03
2022-10-09T07:22:18.089Z,5.83
2022-10-09T07:23:18.096Z,5.94
2022-10-09T07:24:18.100Z,5.96
2022-10-09T07:25:18.070Z,5.83
2022-10-09T07:26:18.039Z,5.79
2022-10-09T07:27:18.035Z,5.90
2022-10-09T07:28:18.046Z,5.76
2022-10-09T07:29:18.019Z,5.82
2022-10-09T07:30:18.022Z,5.79
2022-10-09T07:31:18.039Z,5.79
2022-10-09T07:32:17.978Z,5.94
2022-10-09T07:33:17.977Z,5.94
2022-10-09T07:34:17.967Z,5.96
2022-10-09T07:35:17.948Z,5.94
2022-10-09T07:36:17.962Z,5.97
2022-10-09T07:37:17.934Z,6.03
2022-10-09T07:38:17.926Z,6.15
2022-10-09T07:39:17.908Z,6.21
2022-10-09T07:40:17.904Z,6.48
2022-10-09T07:41:17.914Z,6.43
2022-10-09T07:42:17.888Z,6.55
2022-10-09T07:43:17.869Z,6.61
2022-10-09T07:44:17.866Z,6.64
2022-10-09T07:45:17.856Z,6.74
2022-10-09T07:46:18.953Z,6.77
2022-10-09T07:47:17.831Z,6.84
2022-10-09T07:48:17.815Z,6.79
2022-10-09T07:49:17.817Z,6.92
2022-10-09T07:50:17.800Z,7.05
2022-10-09T07:51:17.778Z,7.07
2022-10-09T07:52:17.793Z,7.09
2022-10-09T07:53:17.770Z,7.17
2022-10-09T07:54:17.771Z,7.10
2022-10-09T07:55:17.729Z,7.35
2022-10-09T07:56:17.740Z,7.52
2022-10-09T07:57:17.740Z,7.53
2022-10-09T07:58:17.722Z,7.58
2022-10-09T07:59:17.719Z,7.48
2022-10-09T08:00:17.695Z,7.35
2022-10-09T08:01:20.342Z,7.50
2022-10-09T08:02:18.749Z,7.67
2022-10-09T08:03:17.669Z,7.61
2022-10-09T08:04:17.678Z,7.40
2022-10-09T08:05:17.647Z,7.37
2022-10-09T08:06:17.627Z,7.68
2022-10-09T08:07:17.619Z,7.75
2022-10-09T08:08:17.610Z,7.80
2022-10-09T08:09:17.610Z,7.74
2022-10-09T08:10:17.599Z,7.79
2022-10-09T08:11:17.593Z,7.98
2022-10-09T08:12:17.570Z,8.05
2022-10-09T08:13:17.565Z,8.04
2022-10-09T08:14:19.510Z,8.10
2022-10-09T08:15:18.557Z,8.26
2022-10-09T08:16:17.602Z,8.30
2022-10-09T08:17:18.547Z,8.22
2022-10-09T08:18:17.526Z,8.33
2022-10-09T08:19:17.506Z,8.40
2022-10-09T08:20:17.493Z,8.44
2022-10-09T08:21:17.510Z,8.41
2022-10-09T08:22:17.480Z,8.47
2022-10-09T08:23:17.479Z,8.22
2022-10-09T08:24:17.464Z,8.43
2022-10-09T08:25:17.435Z,8.43
2022-10-09T08:26:17.424Z,8.38
2022-10-09T08:27:17.440Z,8.44
2022-10-09T08:28:17.469Z,8.48
2022-10-09T08:29:17.412Z,8.52
2022-10-09T08:30:49.365Z,8.61
2022-10-09T08:31:17.454Z,8.62
2022-10-09T08:32:17.385Z,8.76
2022-10-09T08:33:17.369Z,8.95
2022-10-09T08:34:17.357Z,8.99
2022-10-09T08:35:17.374Z,8.95
2022-10-09T08:36:17.346Z,8.86
2022-10-09T08:37:17.356Z,8.83
2022-10-09T08:38:37.458Z,8.87
2022-10-09T08:39:19.350Z,8.73
2022-10-09T08:40:17.372Z,8.77
2022-10-09T08:41:17.277Z,8.77
2022-10-09T08:42:17.268Z,8.83
2022-10-09T08:43:17.297Z,8.66
2022-10-09T08:44:17.299Z,8.70
2022-10-09T08:45:17.249Z,8.83
2022-10-09T08:46:20.795Z,8.84
2022-10-09T08:47:17.263Z,8.86
2022-10-09T08:48:17.211Z,8.98
2022-10-09T08:49:17.203Z,9.11
2022-10-09T08:50:17.186Z,9.23
2022-10-09T08:51:17.175Z,9.35
2022-10-09T08:52:17.192Z,9.36
2022-10-09T08:53:17.171Z,9.38
2022-10-09T08:54:17.153Z,9.47
2022-10-09T08:55:17.140Z,9.47
2022-10-09T08:56:17.149Z,9.75
2022-10-09T08:57:17.132Z,9.76
2022-10-09T08:58:17.141Z,9.78
2022-10-09T08:59:17.152Z,9.94
2022-10-09T09:00:17.098Z,9.90
2022-10-09T09:01:17.131Z,9.96
2022-10-09T09:02:17.077Z,10.07
2022-10-09T09:03:17.133Z,10.38
2022-10-09T09:04:17.069Z,10.40
2022-10-09T09:05:17.052Z,10.32
2022-10-09T09:06:17.035Z,10.38
2022-10-09T09:07:17.044Z,10.64
2022-10-09T09:08:17.005Z,10.91
2022-10-09T09:09:17.021Z,10.92
2022-10-09T09:10:18.770Z,10.92
2022-10-09T09:11:21.249Z,11.07
2022-10-09T09:12:17.990Z,10.99
2022-10-09T09:13:16.983Z,10.76
2022-10-09T09:14:16.940Z,11.00
2022-10-09T09:15:16.950Z,11.36
2022-10-09T09:16:16.973Z,11.57
2022-10-09T09:17:16.924Z,11.65
2022-10-09T09:18:16.923Z,11.75
2022-10-09T09:19:16.913Z,11.78
2022-10-09T09:20:16.889Z,11.76
2022-10-09T09:21:16.882Z,11.95
2022-10-09T09:22:16.863Z,11.82
2022-10-09T09:23:16.875Z,11.79
2022-10-09T09:24:16.853Z,11.72
2022-10-09T09:25:16.882Z,11.57
2022-10-09T09:26:16.821Z,11.60
2022-10-09T09:27:16.810Z,11.44
2022-10-09T09:28:16.829Z,11.60
2022-10-09T09:29:16.792Z,11.64
2022-10-09T09:30:16.803Z,11.67
2022-10-09T09:31:16.906Z,11.37
2022-10-09T09:32:16.772Z,11.27
2022-10-09T09:33:16.762Z,11.29
2022-10-09T09:34:16.745Z,11.36
2022-10-09T09:35:16.751Z,11.58
2022-10-09T09:36:16.789Z,11.43
2022-10-09T09:37:16.736Z,11.33
2022-10-09T09:38:17.752Z,11.19
2022-10-09T09:41:18.719Z,11.33
2022-10-09T09:42:16.695Z,11.43
2022-10-09T09:43:16.659Z,11.51
2022-10-09T09:44:16.655Z,11.69
2022-10-09T09:45:16.635Z,11.73
2022-10-09T09:46:16.850Z,11.75
2022-10-09T09:47:16.634Z,11.82
2022-10-09T09:48:16.615Z,12.02
2022-10-09T09:49:16.605Z,12.17
2022-10-09T09:50:42.262Z,12.21
2022-10-09T09:51:28.115Z,12.29
2022-10-09T09:52:17.590Z,12.31
2022-10-09T09:53:16.595Z,12.19
2022-10-09T09:54:16.559Z,12.19
2022-10-09T09:55:16.547Z,12.39
2022-10-09T09:56:16.541Z,12.53
2022-10-09T09:57:21.712Z,12.70
2022-10-09T09:58:18.546Z,12.71
2022-10-09T09:59:16.520Z,12.68
2022-10-09T10:00:16.507Z,12.50
2022-10-09T10:01:16.591Z,12.54
2022-10-09T10:02:16.556Z,12.85
2022-10-09T10:03:16.488Z,12.92
2022-10-09T10:04:16.451Z,12.96
2022-10-09T10:05:16.446Z,13.17
2022-10-09T10:06:16.449Z,13.19
2022-10-09T10:07:16.424Z,13.39
2022-10-09T10:08:16.412Z,13.60
2022-10-09T10:09:16.406Z,13.77
2022-10-09T10:10:19.763Z,13.88
2022-10-09T10:11:16.378Z,13.92
2022-10-09T10:12:16.406Z,14.00
2022-10-09T10:13:16.360Z,14.07
2022-10-09T10:14:16.353Z,14.09
2022-10-09T10:15:16.348Z,14.24
2022-10-09T10:16:16.426Z,14.28
2022-10-09T10:17:16.637Z,14.39
2022-10-09T10:18:17.334Z,14.39
2022-10-09T10:19:16.316Z,14.42
2022-10-09T10:20:16.313Z,14.36
2022-10-09T10:21:16.310Z,14.46
2022-10-09T10:22:16.311Z,14.52
2022-10-09T10:23:16.293Z,14.43
2022-10-09T10:24:16.270Z,14.42
2022-10-09T10:25:16.358Z,14.45
2022-10-09T10:26:16.259Z,14.52
2022-10-09T10:27:16.215Z,14.62
2022-10-09T10:28:16.282Z,14.78
2022-10-09T10:29:16.239Z,14.86
2022-10-09T10:30:16.194Z,14.75
2022-10-09T10:31:16.231Z,14.68
2022-10-09T10:32:16.187Z,14.70
2022-10-09T10:33:16.184Z,14.89
2022-10-09T10:34:16.157Z,14.95
2022-10-09T10:35:16.138Z,15.03
2022-10-09T10:36:16.124Z,15.14
2022-10-09T10:37:16.119Z,15.31
2022-10-09T10:38:16.102Z,15.39
2022-10-09T10:39:16.180Z,15.53
2022-10-09T10:40:16.090Z,15.67
2022-10-09T10:41:16.078Z,15.71
2022-10-09T10:42:16.054Z,15.76
2022-10-09T10:43:16.059Z,15.78
2022-10-09T10:44:16.095Z,15.82
2022-10-09T10:45:16.031Z,15.87
2022-10-09T10:46:16.060Z,15.96
2022-10-09T10:47:16.007Z,15.94
2022-10-09T10:48:16.022Z,16.01
2022-10-09T10:49:16.021Z,15.93
2022-10-09T10:50:15.986Z,16.07
2022-10-09T10:51:15.975Z,16.05
2022-10-09T10:52:15.959Z,16.20
2022-10-09T10:53:15.947Z,16.30
2022-10-09T10:54:15.946Z,16.38
2022-10-09T10:55:15.964Z,16.39
2022-10-09T10:56:15.913Z,16.39
2022-10-09T10:57:15.932Z,16.42
2022-10-09T10:58:15.894Z,16.42
2022-10-09T10:59:15.895Z,16.39
2022-10-09T11:00:15.904Z,16.42
2022-10-09T11:01:15.959Z,16.34
2022-10-09T11:02:15.857Z,16.23
2022-10-09T11:03:15.877Z,16.08
2022-10-09T11:04:15.835Z,15.97
2022-10-09T11:05:15.832Z,16.21
2022-10-09T11:06:15.812Z,16.25
2022-10-09T11:07:15.826Z,16.30
2022-10-09T11:08:15.789Z,16.25
2022-10-09T11:09:15.786Z,16.09
2022-10-09T11:10:15.864Z,16.21
2022-10-09T11:11:15.791Z,16.28
2022-10-09T11:12:24.721Z,16.34
2022-10-09T11:13:17.747Z,16.35
2022-10-09T11:14:20.069Z,16.41
2022-10-09T11:15:16.723Z,16.48
2022-10-09T11:16:15.799Z,16.53
2022-10-09T11:17:15.709Z,16.71
2022-10-09T11:18:15.688Z,16.79
2022-10-09T11:19:15.695Z,16.93
2022-10-09T11:20:15.764Z,16.89
2022-10-09T11:21:15.666Z,16.85
2022-10-09T11:22:15.646Z,16.94
2022-10-09T11:23:15.638Z,16.86
2022-10-09T11:24:15.655Z,16.89
2022-10-09T11:25:15.621Z,16.66
2022-10-09T11:26:15.611Z,16.76
2022-10-09T11:27:15.620Z,16.82
2022-10-09T11:28:15.645Z,16.83
2022-10-09T11:29:15.632Z,16.86
2022-10-09T11:30:15.652Z,16.93
2022-10-09T11:31:15.614Z,16.88
2022-10-09T11:32:15.555Z,16.91
2022-10-09T11:33:15.542Z,17.01
2022-10-09T11:34:15.551Z,16.98
2022-10-09T11:35:15.530Z,16.91
2022-10-09T11:36:15.526Z,17.06
2022-10-09T11:37:15.531Z,17.21
2022-10-09T11:38:15.505Z,17.34
2022-10-09T11:39:15.496Z,17.49
2022-10-09T11:40:15.542Z,17.48
2022-10-09T11:41:15.475Z,17.41
2022-10-09T11:42:15.478Z,17.33
2022-10-09T11:43:15.449Z,17.40
2022-10-09T11:44:15.428Z,17.43
2022-10-09T11:45:15.427Z,17.52
2022-10-09T11:46:15.525Z,17.43
2022-10-09T11:47:15.405Z,17.30
2022-10-09T11:48:15.417Z,17.25
2022-10-09T11:49:15.371Z,17.26
2022-10-09T11:50:16.419Z,17.22
2022-10-09T11:51:15.368Z,17.16
2022-10-09T11:52:15.371Z,17.14
2022-10-09T11:53:15.348Z,17.16
2022-10-09T11:54:15.326Z,17.25
2022-10-09T11:55:16.345Z,17.38
2022-10-09T11:56:15.305Z,17.25
2022-10-09T11:57:15.735Z,17.19
2022-10-09T11:58:16.292Z,17.19
2022-10-09T11:59:15.344Z,17.22
2022-10-09T12:00:15.324Z,17.46
2022-10-09T12:01:15.339Z,17.43
2022-10-09T12:02:15.315Z,17.21
2022-10-09T12:03:15.300Z,16.97
2022-10-09T12:04:15.499Z,16.91
2022-10-09T12:05:15.249Z,17.01
2022-10-09T12:06:15.220Z,17.11
2022-10-09T12:07:15.200Z,17.21
2022-10-09T12:08:18.351Z,17.06
2022-10-09T12:09:15.191Z,17.00
2022-10-09T12:10:15.216Z,17.16
2022-10-09T12:11:15.187Z,17.26
2022-10-09T12:12:15.164Z,17.06
2022-10-09T12:13:15.160Z,17.23
2022-10-09T12:14:19.513Z,17.01
2022-10-09T12:15:16.124Z,17.04
2022-10-09T12:16:15.149Z,17.19
2022-10-09T12:17:15.105Z,17.18
2022-10-09T12:18:15.094Z,17.16
2022-10-09T12:19:15.081Z,17.33
2022-10-09T12:20:16.105Z,17.30
2022-10-09T12:21:15.062Z,17.43
2022-10-09T12:22:15.051Z,17.55
2022-10-09T12:23:26.205Z,17.55
2022-10-09T12:24:17.050Z,17.59
2022-10-09T12:25:15.091Z,17.52
2022-10-09T12:26:15.020Z,17.62
2022-10-09T12:27:15.023Z,17.59
2022-10-09T12:28:15.053Z,17.64
2022-10-09T12:29:14.996Z,17.52
2022-10-09T12:30:14.976Z,17.48
2022-10-09T12:31:15.041Z,17.49
2022-10-09T12:32:14.962Z,17.49
2022-10-09T12:33:14.960Z,17.28
2022-10-09T12:34:14.957Z,17.19
2022-10-09T12:35:14.941Z,17.06
2022-10-09T12:36:14.931Z,16.91
2022-10-09T12:37:14.916Z,17.00
2022-10-09T12:38:14.911Z,16.85
2022-10-09T12:39:14.921Z,16.93
2022-10-09T12:40:14.880Z,17.14
2022-10-09T12:41:20.073Z,17.04
2022-10-09T12:42:15.948Z,17.26
2022-10-09T12:43:15.162Z,17.25
2022-10-09T12:44:14.845Z,17.43
2022-10-09T12:45:14.878Z,17.37
2022-10-09T12:46:14.887Z,17.48
2022-10-09T12:47:14.815Z,17.49
2022-10-09T12:48:14.823Z,17.59
2022-10-09T12:49:14.792Z,17.71
2022-10-09T12:50:14.777Z,17.55
2022-10-09T12:51:14.785Z,17.63
2022-10-09T12:52:14.763Z,17.77
2022-10-09T12:53:14.759Z,17.72
2022-10-09T12:54:14.739Z,17.72
2022-10-09T12:55:14.733Z,17.82
2022-10-09T12:56:14.720Z,17.89
2022-10-09T12:57:14.702Z,17.95
2022-10-09T12:58:14.700Z,17.82
2022-10-09T12:59:14.706Z,17.70
2022-10-09T13:00:14.696Z,17.55
2022-10-09T13:01:14.723Z,17.71
2022-10-09T13:02:15.542Z,17.86
2022-10-09T13:03:14.646Z,17.97
2022-10-09T13:04:14.671Z,17.99
2022-10-09T13:05:14.623Z,17.99
2022-10-09T13:06:14.621Z,18.17
2022-10-09T13:07:14.615Z,18.12
2022-10-09T13:08:14.621Z,18.02
2022-10-09T13:09:14.609Z,17.92
2022-10-09T13:10:14.603Z,17.96
2022-10-09T13:11:14.568Z,17.82
2022-10-09T13:12:14.564Z,17.84